sensor_id;sensor_type;location;lat;lon;timestamp;P1;durP1;ratioP1;P2;durP2;ratioP2
58360;SDS011;44164;44.954;10.068;2024-03-08T00:01:13;37.47;;;16.52;;
58360;SDS011;44164;44.954;10.068;2024-03-08T00:03:39;40.28;;;17.63;;
58360;SDS011;44164;44.954;10.068;2024-03-08T00:06:06;36.40;;;16.10;;
58360;SDS011;44164;44.954;10.068;2024-03-08T00:08:32;35.00;;;16.00;;
58360;SDS011;44164;44.954;10.068;2024-03-08T00:10:58;38.33;;;16.63;;
58360;SDS011;44164;44.954;10.068;2024-03-08T00:13:24;37.47;;;17.27;;
58360;SDS011;44164;44.954;10.068;2024-03-08T00:15:50;36.67;;;15.25;;
58360;SDS011;44164;44.954;10.068;2024-03-08T00:18:17;28.75;;;14.20;;
58360;SDS011;44164;44.954;10.068;2024-03-08T00:20:43;34.05;;;16.00;;
58360;SDS011;44164;44.954;10.068;2024-03-08T00:23:11;37.78;;;15.57;;
58360;SDS011;44164;44.954;10.068;2024-03-08T00:25:37;40.90;;;16.00;;
58360;SDS011;44164;44.954;10.068;2024-03-08T00:28:04;32.33;;;15.15;;
58360;SDS011;44164;44.954;10.068;2024-03-08T00:30:31;31.98;;;14.43;;
58360;SDS011;44164;44.954;10.068;2024-03-08T00:32:57;30.50;;;13.52;;
58360;SDS011;44164;44.954;10.068;2024-03-08T00:35:24;29.63;;;14.65;;
58360;SDS011;44164;44.954;10.068;2024-03-08T00:37:50;34.58;;;14.07;;
58360;SDS011;44164;44.954;10.068;2024-03-08T00:40:16;28.48;;;12.63;;
58360;SDS011;44164;44.954;10.068;2024-03-08T00:42:42;29.92;;;13.07;;
58360;SDS011;44164;44.954;10.068;2024-03-08T00:45:09;26.13;;;12.48;;
58360;SDS011;44164;44.954;10.068;2024-03-08T00:47:36;30.30;;;12.77;;
58360;SDS011;44164;44.954;10.068;2024-03-08T00:50:02;32.42;;;13.18;;
58360;SDS011;44164;44.954;10.068;2024-03-08T00:52:31;26.85;;;12.50;;
58360;SDS011;44164;44.954;10.068;2024-03-08T00:54:57;27.77;;;13.07;;
58360;SDS011;44164;44.954;10.068;2024-03-08T00:57:23;28.42;;;13.13;;
58360;SDS011;44164;44.954;10.068;2024-03-08T00:59:49;27.05;;;12.43;;
58360;SDS011;44164;44.954;10.068;2024-03-08T01:02:16;24.38;;;11.63;;
58360;SDS011;44164;44.954;10.068;2024-03-08T01:04:44;26.50;;;12.13;;
58360;SDS011;44164;44.954;10.068;2024-03-08T01:07:10;27.50;;;11.75;;
58360;SDS011;44164;44.954;10.068;2024-03-08T01:09:36;23.35;;;10.85;;
58360;SDS011;44164;44.954;10.068;2024-03-08T01:12:02;27.90;;;12.43;;
58360;SDS011;44164;44.954;10.068;2024-03-08T01:14:29;22.05;;;11.30;;
58360;SDS011;44164;44.954;10.068;2024-03-08T01:16:55;29.55;;;12.40;;
58360;SDS011;44164;44.954;10.068;2024-03-08T01:19:22;24.05;;;10.98;;
58360;SDS011;44164;44.954;10.068;2024-03-08T01:21:49;27.50;;;11.90;;
58360;SDS011;44164;44.954;10.068;2024-03-08T01:24:15;21.38;;;9.88;;
58360;SDS011;44164;44.954;10.068;2024-03-08T01:26:41;23.40;;;11.25;;
58360;SDS011;44164;44.954;10.068;2024-03-08T01:29:07;22.27;;;9.73;;
58360;SDS011;44164;44.954;10.068;2024-03-08T01:31:33;23.33;;;10.02;;
58360;SDS011;44164;44.954;10.068;2024-03-08T01:34:02;21.75;;;10.05;;
58360;SDS011;44164;44.954;10.068;2024-03-08T01:36:28;23.02;;;10.40;;
58360;SDS011;44164;44.954;10.068;2024-03-08T01:38:54;24.27;;;10.18;;
58360;SDS011;44164;44.954;10.068;2024-03-08T01:41:20;20.48;;;10.73;;
58360;SDS011;44164;44.954;10.068;2024-03-08T01:43:47;23.77;;;9.73;;
58360;SDS011;44164;44.954;10.068;2024-03-08T01:46:17;19.27;;;9.40;;
58360;SDS011;44164;44.954;10.068;2024-03-08T01:48:45;21.10;;;9.43;;
58360;SDS011;44164;44.954;10.068;2024-03-08T01:51:11;19.92;;;9.80;;
58360;SDS011;44164;44.954;10.068;2024-03-08T01:53:38;18.83;;;9.27;;
58360;SDS011;44164;44.954;10.068;2024-03-08T01:56:04;15.82;;;8.15;;
58360;SDS011;44164;44.954;10.068;2024-03-08T01:58:31;18.83;;;9.05;;
58360;SDS011;44164;44.954;10.068;2024-03-08T02:00:58;20.63;;;9.23;;
58360;SDS011;44164;44.954;10.068;2024-03-08T02:03:25;16.73;;;8.00;;
58360;SDS011;44164;44.954;10.068;2024-03-08T02:05:51;15.07;;;8.32;;
58360;SDS011;44164;44.954;10.068;2024-03-08T02:08:17;16.50;;;7.18;;
58360;SDS011;44164;44.954;10.068;2024-03-08T02:10:48;16.58;;;7.85;;
58360;SDS011;44164;44.954;10.068;2024-03-08T02:13:15;13.93;;;8.10;;
58360;SDS011;44164;44.954;10.068;2024-03-08T02:15:51;15.93;;;8.32;;
58360;SDS011;44164;44.954;10.068;2024-03-08T02:18:21;15.07;;;7.45;;
58360;SDS011;44164;44.954;10.068;2024-03-08T02:20:57;15.27;;;7.50;;
58360;SDS011;44164;44.954;10.068;2024-03-08T02:23:25;13.70;;;7.45;;
58360;SDS011;44164;44.954;10.068;2024-03-08T02:25:52;12.55;;;7.22;;
58360;SDS011;44164;44.954;10.068;2024-03-08T02:28:20;15.55;;;6.90;;
58360;SDS011;44164;44.954;10.068;2024-03-08T02:30:46;11.63;;;6.40;;
58360;SDS011;44164;44.954;10.068;2024-03-08T02:33:13;13.85;;;6.47;;
58360;SDS011;44164;44.954;10.068;2024-03-08T02:35:45;12.15;;;6.80;;
58360;SDS011;44164;44.954;10.068;2024-03-08T02:38:18;13.23;;;7.13;;
58360;SDS011;44164;44.954;10.068;2024-03-08T02:40:45;16.05;;;7.72;;
58360;SDS011;44164;44.954;10.068;2024-03-08T02:43:12;13.05;;;6.80;;
58360;SDS011;44164;44.954;10.068;2024-03-08T02:45:40;14.98;;;6.78;;
58360;SDS011;44164;44.954;10.068;2024-03-08T02:48:15;13.48;;;6.70;;
58360;SDS011;44164;44.954;10.068;2024-03-08T02:50:44;11.65;;;6.60;;
58360;SDS011;44164;44.954;10.068;2024-03-08T02:53:11;12.00;;;6.53;;
58360;SDS011;44164;44.954;10.068;2024-03-08T02:55:37;12.95;;;6.85;;
58360;SDS011;44164;44.954;10.068;2024-03-08T02:58:03;11.77;;;6.75;;
58360;SDS011;44164;44.954;10.068;2024-03-08T03:00:30;12.70;;;7.03;;
58360;SDS011;44164;44.954;10.068;2024-03-08T03:02:56;11.50;;;5.55;;
58360;SDS011;44164;44.954;10.068;2024-03-08T03:05:23;11.85;;;5.55;;
58360;SDS011;44164;44.954;10.068;2024-03-08T03:07:50;11.60;;;6.50;;
58360;SDS011;44164;44.954;10.068;2024-03-08T03:10:16;9.68;;;5.95;;
58360;SDS011;44164;44.954;10.068;2024-03-08T03:12:44;8.77;;;5.35;;
58360;SDS011;44164;44.954;10.068;2024-03-08T03:15:11;10.30;;;5.70;;
58360;SDS011;44164;44.954;10.068;2024-03-08T03:17:38;11.25;;;5.93;;
58360;SDS011;44164;44.954;10.068;2024-03-08T03:20:06;9.93;;;6.32;;
58360;SDS011;44164;44.954;10.068;2024-03-08T03:22:39;8.50;;;5.47;;
58360;SDS011;44164;44.954;10.068;2024-03-08T03:25:07;11.57;;;6.28;;
58360;SDS011;44164;44.954;10.068;2024-03-08T03:27:35;11.70;;;5.60;;
58360;SDS011;44164;44.954;10.068;2024-03-08T03:30:03;10.27;;;5.78;;
58360;SDS011;44164;44.954;10.068;2024-03-08T03:32:47;9.75;;;5.22;;
58360;SDS011;44164;44.954;10.068;2024-03-08T03:35:17;8.27;;;4.95;;
58360;SDS011;44164;44.954;10.068;2024-03-08T03:37:43;7.65;;;5.25;;
58360;SDS011;44164;44.954;10.068;2024-03-08T03:40:27;7.35;;;5.05;;
58360;SDS011;44164;44.954;10.068;2024-03-08T03:42:54;8.18;;;5.15;;
58360;SDS011;44164;44.954;10.068;2024-03-08T03:45:21;9.90;;;5.35;;
58360;SDS011;44164;44.954;10.068;2024-03-08T03:47:47;8.75;;;5.25;;
58360;SDS011;44164;44.954;10.068;2024-03-08T03:50:13;9.68;;;5.32;;
58360;SDS011;44164;44.954;10.068;2024-03-08T03:52:39;7.07;;;4.43;;
58360;SDS011;44164;44.954;10.068;2024-03-08T03:55:05;9.68;;;5.63;;
58360;SDS011;44164;44.954;10.068;2024-03-08T03:57:32;7.53;;;4.68;;
58360;SDS011;44164;44.954;10.068;2024-03-08T03:59:58;8.40;;;4.70;;
58360;SDS011;44164;44.954;10.068;2024-03-08T04:02:24;8.63;;;5.03;;
58360;SDS011;44164;44.954;10.068;2024-03-08T04:04:52;7.75;;;4.75;;
58360;SDS011;44164;44.954;10.068;2024-03-08T04:07:20;8.63;;;4.57;;
58360;SDS011;44164;44.954;10.068;2024-03-08T04:09:46;7.95;;;4.60;;
58360;SDS011;44164;44.954;10.068;2024-03-08T04:12:13;7.28;;;4.30;;
58360;SDS011;44164;44.954;10.068;2024-03-08T04:14:41;6.63;;;3.88;;
58360;SDS011;44164;44.954;10.068;2024-03-08T04:17:08;10.65;;;4.22;;
58360;SDS011;44164;44.954;10.068;2024-03-08T04:19:38;8.73;;;4.55;;
58360;SDS011;44164;44.954;10.068;2024-03-08T04:22:05;5.80;;;3.95;;
58360;SDS011;44164;44.954;10.068;2024-03-08T04:24:33;7.10;;;4.13;;
58360;SDS011;44164;44.954;10.068;2024-03-08T04:26:59;9.35;;;4.85;;
58360;SDS011;44164;44.954;10.068;2024-03-08T04:29:25;7.43;;;4.30;;
58360;SDS011;44164;44.954;10.068;2024-03-08T04:31:52;9.00;;;4.40;;
58360;SDS011;44164;44.954;10.068;2024-03-08T04:34:21;8.45;;;4.07;;
58360;SDS011;44164;44.954;10.068;2024-03-08T04:36:48;7.38;;;4.15;;
58360;SDS011;44164;44.954;10.068;2024-03-08T04:39:14;6.28;;;3.70;;
58360;SDS011;44164;44.954;10.068;2024-03-08T04:41:41;6.25;;;3.60;;
58360;SDS011;44164;44.954;10.068;2024-03-08T04:44:11;5.20;;;3.90;;
58360;SDS011;44164;44.954;10.068;2024-03-08T04:46:38;8.65;;;4.60;;
58360;SDS011;44164;44.954;10.068;2024-03-08T04:49:04;5.85;;;3.65;;
58360;SDS011;44164;44.954;10.068;2024-03-08T04:51:30;6.47;;;3.85;;
58360;SDS011;44164;44.954;10.068;2024-03-08T04:53:56;7.90;;;4.25;;
58360;SDS011;44164;44.954;10.068;2024-03-08T04:56:22;7.82;;;4.20;;
58360;SDS011;44164;44.954;10.068;2024-03-08T04:58:48;7.15;;;3.67;;
58360;SDS011;44164;44.954;10.068;2024-03-08T05:01:15;8.07;;;4.30;;
58360;SDS011;44164;44.954;10.068;2024-03-08T05:03:41;6.85;;;3.80;;
58360;SDS011;44164;44.954;10.068;2024-03-08T05:06:07;7.15;;;3.60;;
58360;SDS011;44164;44.954;10.068;2024-03-08T05:08:34;5.35;;;3.50;;
58360;SDS011;44164;44.954;10.068;2024-03-08T05:11:00;6.60;;;3.45;;
58360;SDS011;44164;44.954;10.068;2024-03-08T05:13:32;5.20;;;3.45;;
58360;SDS011;44164;44.954;10.068;2024-03-08T05:16:00;4.80;;;3.42;;
58360;SDS011;44164;44.954;10.068;2024-03-08T05:18:26;5.20;;;3.45;;
58360;SDS011;44164;44.954;10.068;2024-03-08T05:20:54;5.82;;;3.92;;
58360;SDS011;44164;44.954;10.068;2024-03-08T05:23:20;6.50;;;3.83;;
58360;SDS011;44164;44.954;10.068;2024-03-08T05:25:47;6.78;;;3.85;;
58360;SDS011;44164;44.954;10.068;2024-03-08T05:28:14;4.90;;;3.13;;
58360;SDS011;44164;44.954;10.068;2024-03-08T05:30:40;7.53;;;3.58;;
58360;SDS011;44164;44.954;10.068;2024-03-08T05:33:06;5.82;;;3.58;;
58360;SDS011;44164;44.954;10.068;2024-03-08T05:35:36;5.15;;;3.47;;
58360;SDS011;44164;44.954;10.068;2024-03-08T05:38:02;6.05;;;3.85;;
58360;SDS011;44164;44.954;10.068;2024-03-08T05:40:28;5.07;;;3.67;;
58360;SDS011;44164;44.954;10.068;2024-03-08T05:42:58;6.53;;;3.40;;
58360;SDS011;44164;44.954;10.068;2024-03-08T05:45:25;5.53;;;3.27;;
58360;SDS011;44164;44.954;10.068;2024-03-08T05:47:54;6.45;;;3.47;;
58360;SDS011;44164;44.954;10.068;2024-03-08T05:50:20;5.95;;;4.03;;
58360;SDS011;44164;44.954;10.068;2024-03-08T05:52:46;7.80;;;4.45;;
58360;SDS011;44164;44.954;10.068;2024-03-08T05:55:15;5.93;;;3.67;;
58360;SDS011;44164;44.954;10.068;2024-03-08T05:57:42;5.93;;;3.67;;
58360;SDS011;44164;44.954;10.068;2024-03-08T06:00:08;5.75;;;3.78;;
58360;SDS011;44164;44.954;10.068;2024-03-08T06:02:39;6.05;;;3.88;;
58360;SDS011;44164;44.954;10.068;2024-03-08T06:05:08;6.63;;;4.07;;
58360;SDS011;44164;44.954;10.068;2024-03-08T06:07:35;4.80;;;3.38;;
58360;SDS011;44164;44.954;10.068;2024-03-08T06:10:01;4.90;;;3.38;;
58360;SDS011;44164;44.954;10.068;2024-03-08T06:12:27;6.95;;;3.78;;
58360;SDS011;44164;44.954;10.068;2024-03-08T06:14:58;5.32;;;3.78;;
58360;SDS011;44164;44.954;10.068;2024-03-08T06:17:24;5.68;;;3.83;;
58360;SDS011;44164;44.954;10.068;2024-03-08T06:19:51;4.25;;;3.33;;
58360;SDS011;44164;44.954;10.068;2024-03-08T06:22:18;5.38;;;3.97;;
58360;SDS011;44164;44.954;10.068;2024-03-08T06:24:45;7.72;;;4.10;;
58360;SDS011;44164;44.954;10.068;2024-03-08T06:27:12;5.90;;;3.50;;
58360;SDS011;44164;44.954;10.068;2024-03-08T06:29:39;4.93;;;3.75;;
58360;SDS011;44164;44.954;10.068;2024-03-08T06:32:05;5.53;;;4.03;;
58360;SDS011;44164;44.954;10.068;2024-03-08T06:34:32;5.63;;;4.05;;
58360;SDS011;44164;44.954;10.068;2024-03-08T06:37:00;6.63;;;3.45;;
58360;SDS011;44164;44.954;10.068;2024-03-08T06:39:27;6.95;;;4.18;;
58360;SDS011;44164;44.954;10.068;2024-03-08T06:41:57;7.93;;;5.18;;
58360;SDS011;44164;44.954;10.068;2024-03-08T06:44:23;7.47;;;5.60;;
58360;SDS011;44164;44.954;10.068;2024-03-08T06:46:49;17.88;;;15.20;;
58360;SDS011;44164;44.954;10.068;2024-03-08T06:49:15;12.32;;;10.73;;
58360;SDS011;44164;44.954;10.068;2024-03-08T06:51:41;10.20;;;7.97;;
58360;SDS011;44164;44.954;10.068;2024-03-08T06:54:07;11.52;;;7.82;;
58360;SDS011;44164;44.954;10.068;2024-03-08T06:56:34;11.40;;;8.35;;
58360;SDS011;44164;44.954;10.068;2024-03-08T06:59:01;13.40;;;8.70;;
58360;SDS011;44164;44.954;10.068;2024-03-08T07:01:29;13.50;;;8.73;;
58360;SDS011;44164;44.954;10.068;2024-03-08T07:03:59;12.15;;;8.52;;
58360;SDS011;44164;44.954;10.068;2024-03-08T07:06:27;12.25;;;8.68;;
58360;SDS011;44164;44.954;10.068;2024-03-08T07:08:54;12.93;;;7.95;;
58360;SDS011;44164;44.954;10.068;2024-03-08T07:11:20;10.63;;;7.88;;
58360;SDS011;44164;44.954;10.068;2024-03-08T07:13:47;11.07;;;8.02;;
58360;SDS011;44164;44.954;10.068;2024-03-08T07:16:13;9.85;;;7.93;;
58360;SDS011;44164;44.954;10.068;2024-03-08T07:18:39;10.18;;;7.78;;
58360;SDS011;44164;44.954;10.068;2024-03-08T07:21:09;11.38;;;8.25;;
58360;SDS011;44164;44.954;10.068;2024-03-08T07:23:36;15.33;;;8.40;;
58360;SDS011;44164;44.954;10.068;2024-03-08T07:26:21;13.35;;;8.40;;
58360;SDS011;44164;44.954;10.068;2024-03-08T07:28:47;11.93;;;8.73;;
58360;SDS011;44164;44.954;10.068;2024-03-08T07:31:13;14.07;;;8.60;;
58360;SDS011;44164;44.954;10.068;2024-03-08T07:36:19;11.77;;;8.10;;
58360;SDS011;44164;44.954;10.068;2024-03-08T07:38:45;12.25;;;8.70;;
58360;SDS011;44164;44.954;10.068;2024-03-08T07:41:14;10.45;;;8.30;;
58360;SDS011;44164;44.954;10.068;2024-03-08T07:43:41;12.82;;;8.55;;
58360;SDS011;44164;44.954;10.068;2024-03-08T07:46:07;11.35;;;7.95;;
58360;SDS011;44164;44.954;10.068;2024-03-08T07:48:39;14.82;;;9.30;;
58360;SDS011;44164;44.954;10.068;2024-03-08T07:51:05;11.15;;;8.45;;
58360;SDS011;44164;44.954;10.068;2024-03-08T07:53:31;11.32;;;7.63;;
58360;SDS011;44164;44.954;10.068;2024-03-08T07:55:58;10.60;;;7.72;;
58360;SDS011;44164;44.954;10.068;2024-03-08T07:58:24;13.27;;;7.90;;
58360;SDS011;44164;44.954;10.068;2024-03-08T08:00:50;8.43;;;6.68;;
58360;SDS011;44164;44.954;10.068;2024-03-08T08:03:16;9.00;;;7.22;;
58360;SDS011;44164;44.954;10.068;2024-03-08T08:05:46;12.40;;;8.55;;
58360;SDS011;44164;44.954;10.068;2024-03-08T08:08:14;8.95;;;7.43;;
58360;SDS011;44164;44.954;10.068;2024-03-08T08:10:40;11.20;;;7.65;;
58360;SDS011;44164;44.954;10.068;2024-03-08T08:13:07;7.70;;;6.63;;
58360;SDS011;44164;44.954;10.068;2024-03-08T08:15:34;7.15;;;6.28;;
58360;SDS011;44164;44.954;10.068;2024-03-08T08:18:00;7.82;;;6.35;;
58360;SDS011;44164;44.954;10.068;2024-03-08T08:20:26;8.38;;;6.32;;
58360;SDS011;44164;44.954;10.068;2024-03-08T08:22:54;8.68;;;6.20;;
58360;SDS011;44164;44.954;10.068;2024-03-08T08:25:21;6.75;;;5.97;;
58360;SDS011;44164;44.954;10.068;2024-03-08T08:27:50;7.32;;;5.97;;
58360;SDS011;44164;44.954;10.068;2024-03-08T08:30:16;8.48;;;6.32;;
58360;SDS011;44164;44.954;10.068;2024-03-08T08:32:42;6.80;;;5.60;;
58360;SDS011;44164;44.954;10.068;2024-03-08T08:35:08;6.18;;;5.57;;
58360;SDS011;44164;44.954;10.068;2024-03-08T08:37:35;7.07;;;5.47;;
58360;SDS011;44164;44.954;10.068;2024-03-08T08:40:02;8.37;;;5.90;;
58360;SDS011;44164;44.954;10.068;2024-03-08T08:42:36;6.78;;;5.95;;
58360;SDS011;44164;44.954;10.068;2024-03-08T08:45:04;6.30;;;5.20;;
58360;SDS011;44164;44.954;10.068;2024-03-08T08:47:36;7.07;;;5.30;;
58360;SDS011;44164;44.954;10.068;2024-03-08T08:50:03;7.25;;;5.70;;
58360;SDS011;44164;44.954;10.068;2024-03-08T08:52:32;8.10;;;5.32;;
58360;SDS011;44164;44.954;10.068;2024-03-08T08:55:00;6.60;;;5.65;;
58360;SDS011;44164;44.954;10.068;2024-03-08T08:57:26;7.28;;;5.15;;
58360;SDS011;44164;44.954;10.068;2024-03-08T08:59:53;7.13;;;5.07;;
58360;SDS011;44164;44.954;10.068;2024-03-08T09:02:21;7.97;;;5.37;;
58360;SDS011;44164;44.954;10.068;2024-03-08T09:04:47;6.10;;;4.95;;
58360;SDS011;44164;44.954;10.068;2024-03-08T09:07:16;6.55;;;5.40;;
58360;SDS011;44164;44.954;10.068;2024-03-08T09:12:11;5.82;;;5.22;;
58360;SDS011;44164;44.954;10.068;2024-03-08T09:14:42;5.70;;;5.00;;
58360;SDS011;44164;44.954;10.068;2024-03-08T09:17:09;6.07;;;5.07;;
58360;SDS011;44164;44.954;10.068;2024-03-08T09:19:35;6.50;;;4.95;;
58360;SDS011;44164;44.954;10.068;2024-03-08T09:22:02;5.30;;;4.80;;
58360;SDS011;44164;44.954;10.068;2024-03-08T09:24:30;6.07;;;5.22;;
58360;SDS011;44164;44.954;10.068;2024-03-08T09:26:56;6.85;;;5.47;;
58360;SDS011;44164;44.954;10.068;2024-03-08T09:29:24;6.65;;;4.93;;
58360;SDS011;44164;44.954;10.068;2024-03-08T09:31:50;6.03;;;4.75;;
58360;SDS011;44164;44.954;10.068;2024-03-08T09:34:17;6.18;;;5.53;;
58360;SDS011;44164;44.954;10.068;2024-03-08T09:36:44;6.03;;;4.40;;
58360;SDS011;44164;44.954;10.068;2024-03-08T09:39:10;7.28;;;4.95;;
58360;SDS011;44164;44.954;10.068;2024-03-08T09:41:43;5.85;;;4.75;;
58360;SDS011;44164;44.954;10.068;2024-03-08T09:44:09;5.43;;;4.25;;
58360;SDS011;44164;44.954;10.068;2024-03-08T09:46:35;6.75;;;4.78;;
58360;SDS011;44164;44.954;10.068;2024-03-08T09:49:02;5.38;;;4.18;;
58360;SDS011;44164;44.954;10.068;2024-03-08T09:51:29;5.85;;;4.75;;
58360;SDS011;44164;44.954;10.068;2024-03-08T09:53:56;6.18;;;4.35;;
58360;SDS011;44164;44.954;10.068;2024-03-08T09:56:23;5.00;;;4.50;;
58360;SDS011;44164;44.954;10.068;2024-03-08T09:58:50;6.15;;;4.50;;
58360;SDS011;44164;44.954;10.068;2024-03-08T10:01:39;6.63;;;4.70;;
58360;SDS011;44164;44.954;10.068;2024-03-08T10:04:07;5.43;;;4.20;;
58360;SDS011;44164;44.954;10.068;2024-03-08T10:06:33;5.25;;;4.32;;
58360;SDS011;44164;44.954;10.068;2024-03-08T10:08:59;4.90;;;3.95;;
58360;SDS011;44164;44.954;10.068;2024-03-08T10:11:25;6.25;;;4.55;;
58360;SDS011;44164;44.954;10.068;2024-03-08T10:13:52;6.32;;;3.97;;
58360;SDS011;44164;44.954;10.068;2024-03-08T10:16:18;5.82;;;4.57;;
58360;SDS011;44164;44.954;10.068;2024-03-08T10:18:44;5.75;;;4.40;;
58360;SDS011;44164;44.954;10.068;2024-03-08T10:21:11;6.68;;;4.20;;
58360;SDS011;44164;44.954;10.068;2024-03-08T10:23:39;5.30;;;4.07;;
58360;SDS011;44164;44.954;10.068;2024-03-08T10:26:11;4.90;;;4.20;;
58360;SDS011;44164;44.954;10.068;2024-03-08T10:28:49;5.70;;;4.18;;
58360;SDS011;44164;44.954;10.068;2024-03-08T10:31:17;6.90;;;4.28;;
58360;SDS011;44164;44.954;10.068;2024-03-08T10:36:11;4.63;;;4.13;;
58360;SDS011;44164;44.954;10.068;2024-03-08T10:38:39;5.90;;;4.47;;
58360;SDS011;44164;44.954;10.068;2024-03-08T10:41:06;5.13;;;4.17;;
58360;SDS011;44164;44.954;10.068;2024-03-08T10:46:19;6.68;;;3.67;;
58360;SDS011;44164;44.954;10.068;2024-03-08T10:48:50;5.05;;;4.28;;
58360;SDS011;44164;44.954;10.068;2024-03-08T10:51:18;5.05;;;4.00;;
58360;SDS011;44164;44.954;10.068;2024-03-08T10:53:44;4.93;;;3.83;;
58360;SDS011;44164;44.954;10.068;2024-03-08T10:56:12;7.82;;;4.35;;
58360;SDS011;44164;44.954;10.068;2024-03-08T10:58:40;5.95;;;4.15;;
58360;SDS011;44164;44.954;10.068;2024-03-08T11:01:06;6.15;;;4.15;;
58360;SDS011;44164;44.954;10.068;2024-03-08T11:06:17;5.95;;;4.72;;
58360;SDS011;44164;44.954;10.068;2024-03-08T11:08:48;9.65;;;4.82;;
58360;SDS011;44164;44.954;10.068;2024-03-08T11:11:27;8.13;;;4.28;;
58360;SDS011;44164;44.954;10.068;2024-03-08T11:13:58;7.63;;;4.43;;
58360;SDS011;44164;44.954;10.068;2024-03-08T11:18:54;7.47;;;4.68;;
58360;SDS011;44164;44.954;10.068;2024-03-08T11:21:23;4.72;;;3.88;;
58360;SDS011;44164;44.954;10.068;2024-03-08T11:24:01;7.28;;;4.22;;
58360;SDS011;44164;44.954;10.068;2024-03-08T11:26:40;6.78;;;4.32;;
58360;SDS011;44164;44.954;10.068;2024-03-08T11:32:12;7.50;;;4.45;;
58360;SDS011;44164;44.954;10.068;2024-03-08T11:34:46;5.53;;;4.07;;
58360;SDS011;44164;44.954;10.068;2024-03-08T11:37:15;6.13;;;4.32;;
58360;SDS011;44164;44.954;10.068;2024-03-08T11:39:50;4.35;;;3.38;;
58360;SDS011;44164;44.954;10.068;2024-03-08T11:42:17;4.68;;;3.80;;
58360;SDS011;44164;44.954;10.068;2024-03-08T11:44:44;5.32;;;4.22;;
58360;SDS011;44164;44.954;10.068;2024-03-08T11:47:13;5.55;;;3.67;;
58360;SDS011;44164;44.954;10.068;2024-03-08T11:49:40;4.93;;;3.35;;
58360;SDS011;44164;44.954;10.068;2024-03-08T11:52:16;5.00;;;3.88;;
58360;SDS011;44164;44.954;10.068;2024-03-08T11:54:47;7.28;;;4.20;;
58360;SDS011;44164;44.954;10.068;2024-03-08T11:57:17;5.90;;;4.45;;
58360;SDS011;44164;44.954;10.068;2024-03-08T12:02:19;7.60;;;4.00;;
58360;SDS011;44164;44.954;10.068;2024-03-08T12:04:45;5.25;;;3.85;;
58360;SDS011;44164;44.954;10.068;2024-03-08T12:07:12;4.95;;;4.15;;
58360;SDS011;44164;44.954;10.068;2024-03-08T12:09:40;6.72;;;4.30;;
58360;SDS011;44164;44.954;10.068;2024-03-08T12:12:06;8.57;;;4.07;;
58360;SDS011;44164;44.954;10.068;2024-03-08T12:14:33;4.70;;;3.78;;
58360;SDS011;44164;44.954;10.068;2024-03-08T12:16:59;5.85;;;4.50;;
58360;SDS011;44164;44.954;10.068;2024-03-08T12:19:27;5.68;;;3.90;;
58360;SDS011;44164;44.954;10.068;2024-03-08T12:21:54;5.55;;;3.92;;
58360;SDS011;44164;44.954;10.068;2024-03-08T12:24:20;5.20;;;4.03;;
58360;SDS011;44164;44.954;10.068;2024-03-08T12:26:47;3.78;;;3.05;;
58360;SDS011;44164;44.954;10.068;2024-03-08T12:29:14;5.50;;;3.65;;
58360;SDS011;44164;44.954;10.068;2024-03-08T12:31:46;4.75;;;3.45;;
58360;SDS011;44164;44.954;10.068;2024-03-08T12:34:13;4.75;;;3.80;;
58360;SDS011;44164;44.954;10.068;2024-03-08T12:36:46;4.15;;;3.30;;
58360;SDS011;44164;44.954;10.068;2024-03-08T12:39:17;9.65;;;3.78;;
58360;SDS011;44164;44.954;10.068;2024-03-08T12:41:51;6.75;;;3.63;;
58360;SDS011;44164;44.954;10.068;2024-03-08T12:44:17;4.10;;;3.38;;
58360;SDS011;44164;44.954;10.068;2024-03-08T12:46:44;9.45;;;5.60;;
58360;SDS011;44164;44.954;10.068;2024-03-08T12:49:10;24.00;;;9.30;;
58360;SDS011;44164;44.954;10.068;2024-03-08T12:51:38;23.67;;;12.93;;
58360;SDS011;44164;44.954;10.068;2024-03-08T12:54:05;22.25;;;10.70;;
58360;SDS011;44164;44.954;10.068;2024-03-08T12:56:33;25.95;;;11.07;;
58360;SDS011;44164;44.954;10.068;2024-03-08T12:59:01;20.35;;;9.25;;
58360;SDS011;44164;44.954;10.068;2024-03-08T13:01:27;19.55;;;9.40;;
58360;SDS011;44164;44.954;10.068;2024-03-08T13:03:53;22.33;;;10.90;;
58360;SDS011;44164;44.954;10.068;2024-03-08T13:06:21;26.63;;;11.10;;
58360;SDS011;44164;44.954;10.068;2024-03-08T13:08:50;26.42;;;13.23;;
58360;SDS011;44164;44.954;10.068;2024-03-08T13:11:21;23.50;;;11.75;;
58360;SDS011;44164;44.954;10.068;2024-03-08T13:13:49;28.13;;;12.00;;
58360;SDS011;44164;44.954;10.068;2024-03-08T13:16:15;24.05;;;12.50;;
58360;SDS011;44164;44.954;10.068;2024-03-08T13:18:43;25.33;;;11.33;;
58360;SDS011;44164;44.954;10.068;2024-03-08T13:21:10;24.02;;;10.48;;
58360;SDS011;44164;44.954;10.068;2024-03-08T13:23:36;25.30;;;9.35;;
58360;SDS011;44164;44.954;10.068;2024-03-08T13:26:09;23.23;;;10.02;;
58360;SDS011;44164;44.954;10.068;2024-03-08T13:28:45;20.60;;;9.63;;
58360;SDS011;44164;44.954;10.068;2024-03-08T13:31:11;21.83;;;8.70;;
58360;SDS011;44164;44.954;10.068;2024-03-08T13:33:37;22.80;;;9.70;;
58360;SDS011;44164;44.954;10.068;2024-03-08T13:36:12;20.50;;;8.98;;
58360;SDS011;44164;44.954;10.068;2024-03-08T13:38:42;17.42;;;9.48;;
58360;SDS011;44164;44.954;10.068;2024-03-08T13:41:09;17.47;;;8.83;;
58360;SDS011;44164;44.954;10.068;2024-03-08T13:43:37;14.32;;;7.50;;
58360;SDS011;44164;44.954;10.068;2024-03-08T13:46:04;18.73;;;8.07;;
58360;SDS011;44164;44.954;10.068;2024-03-08T13:48:30;14.02;;;6.75;;
58360;SDS011;44164;44.954;10.068;2024-03-08T13:50:57;13.55;;;6.45;;
58360;SDS011;44164;44.954;10.068;2024-03-08T13:53:23;14.00;;;7.15;;
58360;SDS011;44164;44.954;10.068;2024-03-08T13:55:52;14.68;;;6.38;;
58360;SDS011;44164;44.954;10.068;2024-03-08T13:58:18;14.27;;;6.88;;
58360;SDS011;44164;44.954;10.068;2024-03-08T14:00:46;12.00;;;6.93;;
58360;SDS011;44164;44.954;10.068;2024-03-08T14:03:13;13.93;;;6.72;;
58360;SDS011;44164;44.954;10.068;2024-03-08T14:05:40;12.63;;;6.10;;
58360;SDS011;44164;44.954;10.068;2024-03-08T14:08:07;11.95;;;6.20;;
58360;SDS011;44164;44.954;10.068;2024-03-08T14:10:33;13.35;;;5.88;;
58360;SDS011;44164;44.954;10.068;2024-03-08T14:13:00;10.35;;;6.15;;
58360;SDS011;44164;44.954;10.068;2024-03-08T14:15:28;9.13;;;5.70;;
58360;SDS011;44164;44.954;10.068;2024-03-08T14:17:55;10.82;;;4.93;;
58360;SDS011;44164;44.954;10.068;2024-03-08T14:20:23;16.45;;;5.15;;
58360;SDS011;44164;44.954;10.068;2024-03-08T14:22:54;9.15;;;5.30;;
58360;SDS011;44164;44.954;10.068;2024-03-08T14:25:23;12.95;;;5.65;;
58360;SDS011;44164;44.954;10.068;2024-03-08T14:27:50;10.02;;;4.95;;
58360;SDS011;44164;44.954;10.068;2024-03-08T14:30:23;7.05;;;4.55;;
58360;SDS011;44164;44.954;10.068;2024-03-08T14:33:07;8.88;;;4.63;;
58360;SDS011;44164;44.954;10.068;2024-03-08T14:35:35;9.55;;;4.60;;
58360;SDS011;44164;44.954;10.068;2024-03-08T14:38:02;8.38;;;4.60;;
58360;SDS011;44164;44.954;10.068;2024-03-08T14:40:28;7.78;;;5.38;;
58360;SDS011;44164;44.954;10.068;2024-03-08T14:42:56;10.15;;;4.97;;
58360;SDS011;44164;44.954;10.068;2024-03-08T14:45:22;7.30;;;4.25;;
58360;SDS011;44164;44.954;10.068;2024-03-08T14:47:49;11.38;;;4.88;;
58360;SDS011;44164;44.954;10.068;2024-03-08T14:50:20;8.70;;;4.43;;